sensor_id;sensor_type;location;lat;lon;timestamp;pressure;altitude;pressure_sealevel;temperature
66403;BMP180;53212;52.112;5.144;2022-12-13T00:01:38;101217.80;;;-4.46
66403;BMP180;53212;52.112;5.144;2022-12-13T00:04:06;101222.60;;;-4.50
66403;BMP180;53212;52.112;5.144;2022-12-13T00:06:33;101220.00;;;-4.50
66403;BMP180;53212;52.112;5.144;2022-12-13T00:09:00;101221.80;;;-4.60
66403;BMP180;53212;52.112;5.144;2022-12-13T00:11:26;101216.80;;;-4.60
66403;BMP180;53212;52.112;5.144;2022-12-13T00:53:45;101185.80;;;-4.92
66403;BMP180;53212;52.112;5.144;2022-12-13T00:56:14;101179.40;;;-4.70
66403;BMP180;53212;52.112;5.144;2022-12-13T00:58:40;101178.60;;;-4.70
66403;BMP180;53212;52.112;5.144;2022-12-13T01:01:12;101182.00;;;-4.80
66403;BMP180;53212;52.112;5.144;2022-12-13T01:03:38;101179.80;;;-4.80
66403;BMP180;53212;52.112;5.144;2022-12-13T01:06:27;101180.80;;;-4.80
66403;BMP180;53212;52.112;5.144;2022-12-13T01:08:54;101184.80;;;-4.70
66403;BMP180;53212;52.112;5.144;2022-12-13T01:11:19;101180.40;;;-4.70
66403;BMP180;53212;52.112;5.144;2022-12-13T01:13:45;101180.00;;;-4.70
66403;BMP180;53212;52.112;5.144;2022-12-13T01:16:11;101177.60;;;-4.70
66403;BMP180;53212;52.112;5.144;2022-12-13T01:18:39;101172.20;;;-4.80
66403;BMP180;53212;52.112;5.144;2022-12-13T01:21:17;101169.20;;;-4.80
66403;BMP180;53212;52.112;5.144;2022-12-13T01:23:44;101175.40;;;-4.90
66403;BMP180;53212;52.112;5.144;2022-12-13T01:26:19;101174.80;;;-4.90
66403;BMP180;53212;52.112;5.144;2022-12-13T01:28:46;101172.80;;;-4.90
66403;BMP180;53212;52.112;5.144;2022-12-13T01:31:15;101172.20;;;-4.90
66403;BMP180;53212;52.112;5.144;2022-12-13T01:33:42;101172.20;;;-4.90
66403;BMP180;53212;52.112;5.144;2022-12-13T01:36:14;101173.20;;;-4.90
66403;BMP180;53212;52.112;5.144;2022-12-13T01:38:40;101176.20;;;-4.90
66403;BMP180;53212;52.112;5.144;2022-12-13T01:41:06;101172.60;;;-4.90
66403;BMP180;53212;52.112;5.144;2022-12-13T01:46:06;101172.00;;;-4.96
66403;BMP180;53212;52.112;5.144;2022-12-13T01:48:37;101169.60;;;-5.00
66403;BMP180;53212;52.112;5.144;2022-12-13T01:51:08;101174.40;;;-5.00
66403;BMP180;53212;52.112;5.144;2022-12-13T01:53:36;101174.40;;;-5.10
66403;BMP180;53212;52.112;5.144;2022-12-13T01:56:12;101176.20;;;-5.10
66403;BMP180;53212;52.112;5.144;2022-12-13T01:58:40;101184.40;;;-5.16
66403;BMP180;53212;52.112;5.144;2022-12-13T02:01:06;101186.00;;;-5.20
66403;BMP180;53212;52.112;5.144;2022-12-13T02:03:32;101176.60;;;-5.20
66403;BMP180;53212;52.112;5.144;2022-12-13T02:06:26;101178.00;;;-5.28
66403;BMP180;53212;52.112;5.144;2022-12-13T02:08:52;101178.40;;;-5.26
66403;BMP180;53212;52.112;5.144;2022-12-13T02:11:17;101181.80;;;-5.30
66403;BMP180;53212;52.112;5.144;2022-12-13T02:13:43;101179.80;;;-5.30
66403;BMP180;53212;52.112;5.144;2022-12-13T02:16:19;101177.20;;;-5.30
66403;BMP180;53212;52.112;5.144;2022-12-13T02:22:35;101172.20;;;-5.30
66403;BMP180;53212;52.112;5.144;2022-12-13T02:31:32;101175.40;;;-5.40
66403;BMP180;53212;52.112;5.144;2022-12-13T02:34:38;101174.20;;;-5.48
66403;BMP180;53212;52.112;5.144;2022-12-13T02:37:22;101167.80;;;-5.50
66403;BMP180;53212;52.112;5.144;2022-12-13T02:42:53;101165.20;;;-5.50
66403;BMP180;53212;52.112;5.144;2022-12-13T02:45:28;101162.40;;;-5.50
66403;BMP180;53212;52.112;5.144;2022-12-13T02:47:56;101154.80;;;-5.54
66403;BMP180;53212;52.112;5.144;2022-12-13T02:50:25;101160.80;;;-5.56
66403;BMP180;53212;52.112;5.144;2022-12-13T02:52:52;101160.00;;;-5.60
66403;BMP180;53212;52.112;5.144;2022-12-13T02:55:18;101160.20;;;-5.60
66403;BMP180;53212;52.112;5.144;2022-12-13T02:57:45;101156.60;;;-5.60
66403;BMP180;53212;52.112;5.144;2022-12-13T03:00:22;101160.60;;;-5.60
66403;BMP180;53212;52.112;5.144;2022-12-13T03:08:59;101149.00;;;-5.50
66403;BMP180;53212;52.112;5.144;2022-12-13T03:14:32;101146.40;;;-5.60
66403;BMP180;53212;52.112;5.144;2022-12-13T03:17:01;101142.60;;;-5.68
66403;BMP180;53212;52.112;5.144;2022-12-13T03:19:28;101145.00;;;-5.70
66403;BMP180;53212;52.112;5.144;2022-12-13T03:21:53;101148.40;;;-5.70
66403;BMP180;53212;52.112;5.144;2022-12-13T03:24:20;101153.40;;;-5.70
66403;BMP180;53212;52.112;5.144;2022-12-13T03:26:47;101148.40;;;-5.80
66403;BMP180;53212;52.112;5.144;2022-12-13T03:29:13;101148.60;;;-5.80
66403;BMP180;53212;52.112;5.144;2022-12-13T03:31:39;101151.40;;;-5.80
66403;BMP180;53212;52.112;5.144;2022-12-13T03:34:04;101147.20;;;-5.80
66403;BMP180;53212;52.112;5.144;2022-12-13T03:36:30;101144.80;;;-5.80
66403;BMP180;53212;52.112;5.144;2022-12-13T03:38:56;101144.80;;;-5.80
66403;BMP180;53212;52.112;5.144;2022-12-13T03:41:25;101139.20;;;-5.88
66403;BMP180;53212;52.112;5.144;2022-12-13T03:44:02;101144.40;;;-5.90
66403;BMP180;53212;52.112;5.144;2022-12-13T03:46:28;101145.40;;;-5.86
66403;BMP180;53212;52.112;5.144;2022-12-13T03:48:53;101145.00;;;-5.86
66403;BMP180;53212;52.112;5.144;2022-12-13T03:51:19;101143.40;;;-5.82
66403;BMP180;53212;52.112;5.144;2022-12-13T03:53:44;101149.40;;;-5.80
66403;BMP180;53212;52.112;5.144;2022-12-13T03:56:10;101144.40;;;-5.90
66403;BMP180;53212;52.112;5.144;2022-12-13T03:58:35;101142.40;;;-5.90
66403;BMP180;53212;52.112;5.144;2022-12-13T04:01:01;101143.80;;;-5.90
66403;BMP180;53212;52.112;5.144;2022-12-13T04:03:26;101144.60;;;-5.90
66403;BMP180;53212;52.112;5.144;2022-12-13T04:05:52;101142.80;;;-5.90
66403;BMP180;53212;52.112;5.144;2022-12-13T04:08:17;101141.60;;;-5.90
66403;BMP180;53212;52.112;5.144;2022-12-13T04:10:42;101139.20;;;-5.96
66403;BMP180;53212;52.112;5.144;2022-12-13T04:13:09;101133.40;;;-5.90
66403;BMP180;53212;52.112;5.144;2022-12-13T04:15:54;101136.00;;;-5.92
66403;BMP180;53212;52.112;5.144;2022-12-13T04:18:19;101136.40;;;-6.00
66403;BMP180;53212;52.112;5.144;2022-12-13T04:20:46;101137.80;;;-6.00
66403;BMP180;53212;52.112;5.144;2022-12-13T04:23:12;101137.00;;;-6.00
66403;BMP180;53212;52.112;5.144;2022-12-13T04:25:39;101137.00;;;-5.90
66403;BMP180;53212;52.112;5.144;2022-12-13T04:28:05;101138.00;;;-5.90
66403;BMP180;53212;52.112;5.144;2022-12-13T04:30:32;101136.80;;;-5.90
66403;BMP180;53212;52.112;5.144;2022-12-13T04:32:58;101136.60;;;-5.90
66403;BMP180;53212;52.112;5.144;2022-12-13T04:35:23;101139.60;;;-5.90
66403;BMP180;53212;52.112;5.144;2022-12-13T04:37:49;101133.20;;;-5.80
66403;BMP180;53212;52.112;5.144;2022-12-13T04:40:14;101128.60;;;-5.80
66403;BMP180;53212;52.112;5.144;2022-12-13T04:42:40;101130.60;;;-5.80
66403;BMP180;53212;52.112;5.144;2022-12-13T04:45:06;101130.00;;;-5.80
66403;BMP180;53212;52.112;5.144;2022-12-13T04:47:31;101128.00;;;-5.80
66403;BMP180;53212;52.112;5.144;2022-12-13T04:49:57;101121.40;;;-5.76
66403;BMP180;53212;52.112;5.144;2022-12-13T04:52:22;101118.00;;;-5.72
66403;BMP180;53212;52.112;5.144;2022-12-13T04:54:48;101121.00;;;-5.70
66403;BMP180;53212;52.112;5.144;2022-12-13T04:57:14;101120.00;;;-5.70
66403;BMP180;53212;52.112;5.144;2022-12-13T04:59:39;101115.80;;;-5.70
66403;BMP180;53212;52.112;5.144;2022-12-13T05:02:06;101110.00;;;-5.70
66403;BMP180;53212;52.112;5.144;2022-12-13T05:04:32;101110.00;;;-5.62
66403;BMP180;53212;52.112;5.144;2022-12-13T05:06:59;101103.20;;;-5.68
66403;BMP180;53212;52.112;5.144;2022-12-13T05:09:24;101109.00;;;-5.70
66403;BMP180;53212;52.112;5.144;2022-12-13T05:11:50;101104.00;;;-5.70
66403;BMP180;53212;52.112;5.144;2022-12-13T05:14:15;101101.60;;;-5.70
66403;BMP180;53212;52.112;5.144;2022-12-13T05:16:41;101099.60;;;-5.70
66403;BMP180;53212;52.112;5.144;2022-12-13T05:19:06;101107.60;;;-5.72
66403;BMP180;53212;52.112;5.144;2022-12-13T05:21:31;101107.00;;;-5.72
66403;BMP180;53212;52.112;5.144;2022-12-13T05:24:01;101104.80;;;-5.70
66403;BMP180;53212;52.112;5.144;2022-12-13T05:26:27;101098.40;;;-5.70
66403;BMP180;53212;52.112;5.144;2022-12-13T05:28:56;101095.00;;;-5.70
66403;BMP180;53212;52.112;5.144;2022-12-13T05:31:22;101098.40;;;-5.70
66403;BMP180;53212;52.112;5.144;2022-12-13T05:33:47;101089.60;;;-5.76
66403;BMP180;53212;52.112;5.144;2022-12-13T05:36:13;101091.40;;;-5.80
66403;BMP180;53212;52.112;5.144;2022-12-13T05:38:38;101099.20;;;-5.80
66403;BMP180;53212;52.112;5.144;2022-12-13T05:41:04;101100.80;;;-5.80
66403;BMP180;53212;52.112;5.144;2022-12-13T05:43:30;101093.00;;;-5.70
66403;BMP180;53212;52.112;5.144;2022-12-13T05:45:56;101094.80;;;-5.70
66403;BMP180;53212;52.112;5.144;2022-12-13T05:48:21;101096.20;;;-5.66
66403;BMP180;53212;52.112;5.144;2022-12-13T05:50:47;101096.20;;;-5.60
66403;BMP180;53212;52.112;5.144;2022-12-13T05:53:12;101097.40;;;-5.60
66403;BMP180;53212;52.112;5.144;2022-12-13T05:55:39;101095.20;;;-5.60
66403;BMP180;53212;52.112;5.144;2022-12-13T05:58:05;101088.80;;;-5.62
66403;BMP180;53212;52.112;5.144;2022-12-13T06:00:30;101088.60;;;-5.60
66403;BMP180;53212;52.112;5.144;2022-12-13T06:02:57;101100.00;;;-5.60
66403;BMP180;53212;52.112;5.144;2022-12-13T06:05:23;101095.40;;;-5.60
66403;BMP180;53212;52.112;5.144;2022-12-13T06:07:49;101096.00;;;-5.60
66403;BMP180;53212;52.112;5.144;2022-12-13T06:10:14;101090.20;;;-5.68
66403;BMP180;53212;52.112;5.144;2022-12-13T06:12:40;101089.20;;;-5.70
66403;BMP180;53212;52.112;5.144;2022-12-13T06:15:06;101092.20;;;-5.70
66403;BMP180;53212;52.112;5.144;2022-12-13T06:17:35;101089.80;;;-5.70
66403;BMP180;53212;52.112;5.144;2022-12-13T06:20:03;101084.80;;;-5.70
66403;BMP180;53212;52.112;5.144;2022-12-13T06:22:29;101083.00;;;-5.70
66403;BMP180;53212;52.112;5.144;2022-12-13T06:24:54;101085.80;;;-5.70
66403;BMP180;53212;52.112;5.144;2022-12-13T06:27:20;101083.20;;;-5.70
66403;BMP180;53212;52.112;5.144;2022-12-13T06:29:45;101079.80;;;-5.64
66403;BMP180;53212;52.112;5.144;2022-12-13T06:32:11;101077.00;;;-5.70
66403;BMP180;53212;52.112;5.144;2022-12-13T06:34:36;101082.40;;;-5.66
66403;BMP180;53212;52.112;5.144;2022-12-13T06:37:05;101083.60;;;-5.64
66403;BMP180;53212;52.112;5.144;2022-12-13T06:39:32;101085.60;;;-5.70
66403;BMP180;53212;52.112;5.144;2022-12-13T06:41:57;101082.00;;;-5.70
66403;BMP180;53212;52.112;5.144;2022-12-13T06:44:23;101082.40;;;-5.70
66403;BMP180;53212;52.112;5.144;2022-12-13T06:46:48;101082.00;;;-5.70
66403;BMP180;53212;52.112;5.144;2022-12-13T06:49:14;101082.60;;;-5.70
66403;BMP180;53212;52.112;5.144;2022-12-13T06:51:39;101088.40;;;-5.76
66403;BMP180;53212;52.112;5.144;2022-12-13T06:54:04;101093.00;;;-5.80
66403;BMP180;53212;52.112;5.144;2022-12-13T06:56:31;101092.40;;;-5.80
66403;BMP180;53212;52.112;5.144;2022-12-13T06:58:57;101099.40;;;-5.80
66403;BMP180;53212;52.112;5.144;2022-12-13T07:01:23;101094.60;;;-5.80
66403;BMP180;53212;52.112;5.144;2022-12-13T07:03:49;101097.60;;;-5.80
66403;BMP180;53212;52.112;5.144;2022-12-13T07:06:18;101095.60;;;-5.80
66403;BMP180;53212;52.112;5.144;2022-12-13T07:08:49;101101.80;;;-5.80
66403;BMP180;53212;52.112;5.144;2022-12-13T07:11:25;101101.80;;;-5.80
66403;BMP180;53212;52.112;5.144;2022-12-13T07:13:52;101110.00;;;-5.90
66403;BMP180;53212;52.112;5.144;2022-12-13T07:16:18;101111.00;;;-5.92
66403;BMP180;53212;52.112;5.144;2022-12-13T07:18:44;101108.40;;;-6.00
66403;BMP180;53212;52.112;5.144;2022-12-13T07:21:12;101110.20;;;-6.00
66403;BMP180;53212;52.112;5.144;2022-12-13T07:23:39;101115.60;;;-5.90
66403;BMP180;53212;52.112;5.144;2022-12-13T07:26:06;101117.60;;;-5.90
66403;BMP180;53212;52.112;5.144;2022-12-13T07:28:34;101118.80;;;-5.90
66403;BMP180;53212;52.112;5.144;2022-12-13T07:31:01;101112.20;;;-5.90
66403;BMP180;53212;52.112;5.144;2022-12-13T07:33:27;101112.80;;;-5.90
66403;BMP180;53212;52.112;5.144;2022-12-13T07:36:14;101113.40;;;-5.90
66403;BMP180;53212;52.112;5.144;2022-12-13T07:38:41;101120.80;;;-5.88
66403;BMP180;53212;52.112;5.144;2022-12-13T07:41:07;101122.80;;;-5.90
66403;BMP180;53212;52.112;5.144;2022-12-13T07:43:33;101124.00;;;-5.90
66403;BMP180;53212;52.112;5.144;2022-12-13T07:46:05;101124.20;;;-5.90
66403;BMP180;53212;52.112;5.144;2022-12-13T07:48:31;101128.80;;;-5.90
66403;BMP180;53212;52.112;5.144;2022-12-13T07:51:03;101129.80;;;-5.90
66403;BMP180;53212;52.112;5.144;2022-12-13T07:53:29;101131.00;;;-5.90
66403;BMP180;53212;52.112;5.144;2022-12-13T07:55:54;101128.40;;;-5.90
66403;BMP180;53212;52.112;5.144;2022-12-13T07:58:20;101131.20;;;-5.90
66403;BMP180;53212;52.112;5.144;2022-12-13T08:00:46;101132.00;;;-5.82
66403;BMP180;53212;52.112;5.144;2022-12-13T08:03:13;101132.60;;;-5.80
66403;BMP180;53212;52.112;5.144;2022-12-13T08:05:39;101135.20;;;-5.74
66403;BMP180;53212;52.112;5.144;2022-12-13T08:08:07;101134.20;;;-5.70
66403;BMP180;53212;52.112;5.144;2022-12-13T08:10:33;101131.80;;;-5.66
66403;BMP180;53212;52.112;5.144;2022-12-13T08:13:02;101127.20;;;-5.70
66403;BMP180;53212;52.112;5.144;2022-12-13T08:15:28;101140.40;;;-5.64
66403;BMP180;53212;52.112;5.144;2022-12-13T08:17:57;101148.00;;;-5.60
66403;BMP180;53212;52.112;5.144;2022-12-13T08:20:25;101143.40;;;-5.60
66403;BMP180;53212;52.112;5.144;2022-12-13T08:22:57;101144.80;;;-5.50
66403;BMP180;53212;52.112;5.144;2022-12-13T08:25:24;101140.00;;;-5.40
66403;BMP180;53212;52.112;5.144;2022-12-13T08:27:49;101139.80;;;-5.32
66403;BMP180;53212;52.112;5.144;2022-12-13T08:30:15;101133.60;;;-5.30
66403;BMP180;53212;52.112;5.144;2022-12-13T08:32:41;101133.60;;;-5.30
66403;BMP180;53212;52.112;5.144;2022-12-13T08:35:06;101137.00;;;-5.20
66403;BMP180;53212;52.112;5.144;2022-12-13T08:37:32;101141.80;;;-5.20
66403;BMP180;53212;52.112;5.144;2022-12-13T08:39:57;101138.20;;;-5.12
66403;BMP180;53212;52.112;5.144;2022-12-13T08:42:23;101139.60;;;-5.10
66403;BMP180;53212;52.112;5.144;2022-12-13T08:44:51;101135.40;;;-5.00
66403;BMP180;53212;52.112;5.144;2022-12-13T08:47:20;101145.80;;;-4.90
66403;BMP180;53212;52.112;5.144;2022-12-13T08:49:46;101143.20;;;-4.80
66403;BMP180;53212;52.112;5.144;2022-12-13T08:52:12;101149.60;;;-4.70
66403;BMP180;53212;52.112;5.144;2022-12-13T08:54:37;101152.60;;;-4.70
66403;BMP180;53212;52.112;5.144;2022-12-13T08:57:02;101146.40;;;-4.60
66403;BMP180;53212;52.112;5.144;2022-12-13T08:59:28;101148.80;;;-4.60
66403;BMP180;53212;52.112;5.144;2022-12-13T09:01:53;101150.20;;;-4.50
66403;BMP180;53212;52.112;5.144;2022-12-13T09:04:19;101156.80;;;-4.50
66403;BMP180;53212;52.112;5.144;2022-12-13T09:06:44;101155.80;;;-4.48
66403;BMP180;53212;52.112;5.144;2022-12-13T09:09:10;101149.80;;;-4.40
66403;BMP180;53212;52.112;5.144;2022-12-13T09:11:38;101152.40;;;-4.40
66403;BMP180;53212;52.112;5.144;2022-12-13T09:14:06;101149.40;;;-4.40
66403;BMP180;53212;52.112;5.144;2022-12-13T09:16:31;101150.60;;;-4.40
66403;BMP180;53212;52.112;5.144;2022-12-13T09:19:01;101144.40;;;-4.38
66403;BMP180;53212;52.112;5.144;2022-12-13T09:21:26;101140.20;;;-4.30
66403;BMP180;53212;52.112;5.144;2022-12-13T09:23:53;101139.00;;;-4.30
66403;BMP180;53212;52.112;5.144;2022-12-13T09:26:19;101143.80;;;-4.20
66403;BMP180;53212;52.112;5.144;2022-12-13T09:28:45;101148.20;;;-4.20
66403;BMP180;53212;52.112;5.144;2022-12-13T09:31:14;101145.00;;;-4.20
66403;BMP180;53212;52.112;5.144;2022-12-13T09:33:41;101148.80;;;-4.12
66403;BMP180;53212;52.112;5.144;2022-12-13T09:36:09;101149.00;;;-4.10
66403;BMP180;53212;52.112;5.144;2022-12-13T09:38:35;101147.00;;;-4.04
66403;BMP180;53212;52.112;5.144;2022-12-13T09:41:37;101144.00;;;-4.00
66403;BMP180;53212;52.112;5.144;2022-12-13T09:44:21;101135.40;;;-3.90
66403;BMP180;53212;52.112;5.144;2022-12-13T09:46:47;101134.40;;;-3.80
66403;BMP180;53212;52.112;5.144;2022-12-13T09:49:50;101135.60;;;-3.80
66403;BMP180;53212;52.112;5.144;2022-12-13T09:52:16;101130.60;;;-3.70
66403;BMP180;53212;52.112;5.144;2022-12-13T09:54:43;101126.20;;;-3.70
66403;BMP180;53212;52.112;5.144;2022-12-13T09:57:23;101118.60;;;-3.68
66403;BMP180;53212;52.112;5.144;2022-12-13T09:59:49;101118.40;;;-3.60
66403;BMP180;53212;52.112;5.144;2022-12-13T10:02:29;101114.80;;;-3.60
66403;BMP180;53212;52.112;5.144;2022-12-13T10:05:28;101118.20;;;-3.60
66403;BMP180;53212;52.112;5.144;2022-12-13T10:07:57;101119.80;;;-3.60
66403;BMP180;53212;52.112;5.144;2022-12-13T10:10:25;101119.80;;;-3.50
66403;BMP180;53212;52.112;5.144;2022-12-13T10:15:54;101116.80;;;-3.48
66403;BMP180;53212;52.112;5.144;2022-12-13T10:18:35;101116.40;;;-3.40
66403;BMP180;53212;52.112;5.144;2022-12-13T10:21:12;101109.20;;;-3.40
66403;BMP180;53212;52.112;5.144;2022-12-13T10:23:38;101094.00;;;-3.32
66403;BMP180;53212;52.112;5.144;2022-12-13T10:26:12;101092.20;;;-3.30
66403;BMP180;53212;52.112;5.144;2022-12-13T10:28:38;101095.00;;;-3.30
66403;BMP180;53212;52.112;5.144;2022-12-13T10:31:05;101095.20;;;-3.30
66403;BMP180;53212;52.112;5.144;2022-12-13T10:33:36;101097.20;;;-3.30
66403;BMP180;53212;52.112;5.144;2022-12-13T10:36:14;101094.00;;;-3.20
66403;BMP180;53212;52.112;5.144;2022-12-13T10:38:45;101096.60;;;-3.20
66403;BMP180;53212;52.112;5.144;2022-12-13T10:41:36;101096.00;;;-3.10
66403;BMP180;53212;52.112;5.144;2022-12-13T10:46:41;101084.40;;;-2.80
66403;BMP180;53212;52.112;5.144;2022-12-13T10:49:25;101075.00;;;-2.70
66403;BMP180;53212;52.112;5.144;2022-12-13T10:51:52;101075.00;;;-2.60
66403;BMP180;53212;52.112;5.144;2022-12-13T10:54:36;101069.80;;;-2.60
66403;BMP180;53212;52.112;5.144;2022-12-13T10:57:03;101061.60;;;-2.50
66403;BMP180;53212;52.112;5.144;2022-12-13T10:59:37;101063.20;;;-2.40
66403;BMP180;53212;52.112;5.144;2022-12-13T11:04:50;101064.60;;;-2.30
66403;BMP180;53212;52.112;5.144;2022-12-13T11:07:32;101073.80;;;-2.20
66403;BMP180;53212;52.112;5.144;2022-12-13T11:10:25;101067.40;;;-2.10
66403;BMP180;53212;52.112;5.144;2022-12-13T11:12:57;101068.20;;;-2.08
66403;BMP180;53212;52.112;5.144;2022-12-13T11:15:24;101061.20;;;-2.08
66403;BMP180;53212;52.112;5.144;2022-12-13T11:17:57;101064.80;;;-2.00
66403;BMP180;53212;52.112;5.144;2022-12-13T11:20:52;101065.20;;;-2.00
66403;BMP180;53212;52.112;5.144;2022-12-13T11:23:28;101065.20;;;-2.00
66403;BMP180;53212;52.112;5.144;2022-12-13T11:26:09;101064.20;;;-2.00
66403;BMP180;53212;52.112;5.144;2022-12-13T11:29:10;101063.00;;;-2.00
66403;BMP180;53212;52.112;5.144;2022-12-13T11:32:04;101070.60;;;-2.00
66403;BMP180;53212;52.112;5.144;2022-12-13T11:40:30;101051.20;;;-2.00
66403;BMP180;53212;52.112;5.144;2022-12-13T11:45:48;101042.00;;;-1.90
66403;BMP180;53212;52.112;5.144;2022-12-13T11:48:27;101036.60;;;-1.94
66403;BMP180;53212;52.112;5.144;2022-12-13T11:50:59;101030.80;;;-1.94
66403;BMP180;53212;52.112;5.144;2022-12-13T11:56:27;101019.60;;;-2.00
66403;BMP180;53212;52.112;5.144;2022-12-13T11:59:32;101018.80;;;-2.00
66403;BMP180;53212;52.112;5.144;2022-12-13T12:02:29;101017.60;;;-2.00
66403;BMP180;53212;52.112;5.144;2022-12-13T12:04:59;101015.80;;;-2.00
66403;BMP180;53212;52.112;5.144;2022-12-13T12:07:42;101028.00;;;-2.00
66403;BMP180;53212;52.112;5.144;2022-12-13T12:10:36;101019.00;;;-2.00
66403;BMP180;53212;52.112;5.144;2022-12-13T12:13:18;101016.40;;;-2.00
66403;BMP180;53212;52.112;5.144;2022-12-13T12:16:13;101024.80;;;-2.00
66403;BMP180;53212;52.112;5.144;2022-12-13T12:18:42;101025.80;;;-2.00
66403;BMP180;53212;52.112;5.144;2022-12-13T12:30:07;101015.60;;;-1.80
66403;BMP180;53212;52.112;5.144;2022-12-13T12:33:08;101018.40;;;-1.80
66403;BMP180;53212;52.112;5.144;2022-12-13T12:39:02;101018.00;;;-1.60
66403;BMP180;53212;52.112;5.144;2022-12-13T12:55:54;101007.00;;;-1.20
66403;BMP180;53212;52.112;5.144;2022-12-13T12:58:33;101000.80;;;-1.20
66403;BMP180;53212;52.112;5.144;2022-12-13T13:03:52;100995.80;;;-1.20
66403;BMP180;53212;52.112;5.144;2022-12-13T13:06:32;100989.20;;;-1.28
66403;BMP180;53212;52.112;5.144;2022-12-13T13:09:11;100986.60;;;-1.30
66403;BMP180;53212;52.112;5.144;2022-12-13T13:11:40;100995.40;;;-1.30
66403;BMP180;53212;52.112;5.144;2022-12-13T13:14:34;100994.00;;;-1.30
66403;BMP180;53212;52.112;5.144;2022-12-13T13:19:46;100990.40;;;-1.40
66403;BMP180;53212;52.112;5.144;2022-12-13T13:22:45;100993.00;;;-1.40
66403;BMP180;53212;52.112;5.144;2022-12-13T13:25:32;100992.80;;;-1.40
66403;BMP180;53212;52.112;5.144;2022-12-13T13:28:15;100985.20;;;-1.40
66403;BMP180;53212;52.112;5.144;2022-12-13T13:31:07;100984.20;;;-1.40
66403;BMP180;53212;52.112;5.144;2022-12-13T13:33:47;100983.00;;;-1.40
66403;BMP180;53212;52.112;5.144;2022-12-13T13:39:40;100985.00;;;-1.46
66403;BMP180;53212;52.112;5.144;2022-12-13T13:42:31;100974.40;;;-1.50
66403;BMP180;53212;52.112;5.144;2022-12-13T13:47:42;100969.40;;;-1.54
66403;BMP180;53212;52.112;5.144;2022-12-13T13:55:52;100957.00;;;-1.50
66403;BMP180;53212;52.112;5.144;2022-12-13T14:01:48;100959.20;;;-1.40
66403;BMP180;53212;52.112;5.144;2022-12-13T14:05:08;100958.40;;;-1.50
66403;BMP180;53212;52.112;5.144;2022-12-13T14:08:16;100957.20;;;-1.50
66403;BMP180;53212;52.112;5.144;2022-12-13T14:18:08;100958.60;;;-1.50
66403;BMP180;53212;52.112;5.144;2022-12-13T14:28:54;100938.20;;;-1.70
66403;BMP180;53212;52.112;5.144;2022-12-13T14:31:40;100941.00;;;-1.78
66403;BMP180;53212;52.112;5.144;2022-12-13T14:34:13;100937.80;;;-1.80
66403;BMP180;53212;52.112;5.144;2022-12-13T14:36:40;100933.40;;;-1.80
66403;BMP180;53212;52.112;5.144;2022-12-13T14:39:15;100936.40;;;-1.80
66403;BMP180;53212;52.112;5.144;2022-12-13T14:41:46;100935.80;;;-1.90
66403;BMP180;53212;52.112;5.144;2022-12-13T14:44:32;100930.60;;;-1.90
66403;BMP180;53212;52.112;5.144;2022-12-13T14:47:06;100928.20;;;-1.90
66403;BMP180;53212;52.112;5.144;2022-12-13T14:49:37;100927.40;;;-1.90
66403;BMP180;53212;52.112;5.144;2022-12-13T14:52:28;100924.60;;;-1.90
66403;BMP180;53212;52.112;5.144;2022-12-13T14:55:00;100923.60;;;-2.00
66403;BMP180;53212;52.112;5.144;2022-12-13T14:57:32;100920.80;;;-2.02
66403;BMP180;53212;52.112;5.144;2022-12-13T15:00:00;100921.40;;;-2.10
66403;BMP180;53212;52.112;5.144;2022-12-13T15:02:31;100913.60;;;-2.10
66403;BMP180;53212;52.112;5.144;2022-12-13T15:05:04;100919.40;;;-2.10
66403;BMP180;53212;52.112;5.144;2022-12-13T15:07:35;100915.00;;;-2.12
66403;BMP180;53212;52.112;5.144;2022-12-13T15:13:33;100899.80;;;-2.20
66403;BMP180;53212;52.112;5.144;2022-12-13T15:16:08;100905.00;;;-2.20
66403;BMP180;53212;52.112;5.144;2022-12-13T15:18:35;100905.20;;;-2.22
66403;BMP180;53212;52.112;5.144;2022-12-13T15:21:00;100905.60;;;-2.30
66403;BMP180;53212;52.112;5.144;2022-12-13T15:23:31;100901.80;;;-2.30
66403;BMP180;53212;52.112;5.144;2022-12-13T15:26:20;100899.00;;;-2.30
66403;BMP180;53212;52.112;5.144;2022-12-13T15:28:52;100895.40;;;-2.38
66403;BMP180;53212;52.112;5.144;2022-12-13T15:31:18;100890.00;;;-2.40
66403;BMP180;53212;52.112;5.144;2022-12-13T15:33:44;100883.00;;;-2.40
66403;BMP180;53212;52.112;5.144;2022-12-13T15:36:26;100881.00;;;-2.40
66403;BMP180;53212;52.112;5.144;2022-12-13T15:41:41;100884.20;;;-2.50
66403;BMP180;53212;52.112;5.144;2022-12-13T15:44:36;100885.00;;;-2.50
66403;BMP180;53212;52.112;5.144;2022-12-13T15:47:10;100883.80;;;-2.50
66403;BMP180;53212;52.112;5.144;2022-12-13T15:49:57;100879.60;;;-2.60
66403;BMP180;53212;52.112;5.144;2022-12-13T15:52:37;100876.00;;;-2.60
66403;BMP180;53212;52.112;5.144;2022-12-13T15:57:54;100872.40;;;-2.60
66403;BMP180;53212;52.112;5.144;2022-12-13T16:00:27;100874.80;;;-2.60
66403;BMP180;53212;52.112;5.144;2022-12-13T16:03:20;100875.00;;;-2.60
66403;BMP180;53212;52.112;5.144;2022-12-13T16:05:50;100868.80;;;-2.70
66403;BMP180;53212;52.112;5.144;2022-12-13T16:08:38;100869.20;;;-2.70
66403;BMP180;53212;52.112;5.144;2022-12-13T16:11:06;100864.20;;;-2.70
66403;BMP180;53212;52.112;5.144;2022-12-13T16:13:35;100858.40;;;-2.70
66403;BMP180;53212;52.112;5.144;2022-12-13T16:16:25;100862.60;;;-2.70
66403;BMP180;53212;52.112;5.144;2022-12-13T16:18:59;100864.80;;;-2.70
66403;BMP180;53212;52.112;5.144;2022-12-13T16:21:26;100861.40;;;-2.70
66403;BMP180;53212;52.112;5.144;2022-12-13T16:23:53;100861.00;;;-2.70
66403;BMP180;53212;52.112;5.144;2022-12-13T16:26:28;100852.40;;;-2.70
66403;BMP180;53212;52.112;5.144;2022-12-13T16:28:55;100852.20;;;-2.70
66403;BMP180;53212;52.112;5.144;2022-12-13T16:31:29;100848.40;;;-2.80
66403;BMP180;53212;52.112;5.144;2022-12-13T16:34:00;100850.80;;;-2.80
66403;BMP180;53212;52.112;5.144;2022-12-13T16:36:26;100848.60;;;-2.80
66403;BMP180;53212;52.112;5.144;2022-12-13T16:38:51;100846.60;;;-2.80
66403;BMP180;53212;52.112;5.144;2022-12-13T16:41:17;100842.20;;;-2.90
66403;BMP180;53212;52.112;5.144;2022-12-13T16:46:14;100832.40;;;-2.84
66403;BMP180;53212;52.112;5.144;2022-12-13T16:48:39;100831.00;;;-2.90
66403;BMP180;53212;52.112;5.144;2022-12-13T16:51:05;100834.80;;;-2.90
66403;BMP180;53212;52.112;5.144;2022-12-13T16:53:32;100830.00;;;-2.88
66403;BMP180;53212;52.112;5.144;2022-12-13T16:55:58;100827.80;;;-2.90
66403;BMP180;53212;52.112;5.144;2022-12-13T16:58:23;100830.80;;;-2.90